Terminal Aerodrome Forecast
Issued by NWS Newport/Morehead City, NC

Home | Current Version | Previous Version | Graphics & Text | Print | Product List | Glossary On
Versions: 1 2 3 4 5 6 7 8 9 10 11 12 13 14 15 16
000
FTUS42 KMHX 012339
TAFEWN
TAF
KEWN 012339Z 0200/0224 36013G18KT P6SM SCT025 BKN050
     FM020600 34008KT P6SM SCT100
     FM021400 35010G16KT P6SM SCT040=

USA.gov is the U.S. government's official web portal to all federal, state and local government web resources and services.